createdAt,value
2022-09-20T00:01:25.656Z,17.50
2022-09-20T00:03:55.879Z,17.50
2022-09-20T00:06:25.878Z,17.50
2022-09-20T00:08:53.213Z,17.50
2022-09-20T00:11:22.407Z,17.50
2022-09-20T00:13:52.101Z,17.50
2022-09-20T00:16:27.662Z,17.50
2022-09-20T00:18:56.935Z,17.50
2022-09-20T00:21:27.036Z,17.50
2022-09-20T00:23:54.972Z,17.50
2022-09-20T00:26:21.892Z,17.50
2022-09-20T00:28:48.885Z,17.50
2022-09-20T00:31:16.280Z,17.50
2022-09-20T00:34:02.048Z,17.50
2022-09-20T00:36:29.586Z,17.50
2022-09-20T00:38:57.937Z,17.50
2022-09-20T00:41:25.182Z,17.50
2022-09-20T00:43:52.792Z,17.50
2022-09-20T00:46:19.691Z,17.40
2022-09-20T00:48:47.625Z,17.50
2022-09-20T00:51:17.753Z,17.50
2022-09-20T00:53:57.597Z,17.50
2022-09-20T00:56:32.674Z,17.50
2022-09-20T00:59:10.722Z,17.50
2022-09-20T01:01:37.930Z,17.50
2022-09-20T01:04:05.106Z,17.50
2022-09-20T01:06:33.897Z,17.50
2022-09-20T01:09:03.642Z,17.50
2022-09-20T01:11:31.529Z,17.50
2022-09-20T01:13:58.359Z,17.50
2022-09-20T01:16:27.005Z,17.50
2022-09-20T01:18:57.220Z,17.50
2022-09-20T01:21:25.541Z,17.50
2022-09-20T01:24:10.771Z,17.50
2022-09-20T01:26:41.712Z,17.50
2022-09-20T01:29:23.228Z,17.50
2022-09-20T01:31:54.899Z,17.50
2022-09-20T01:34:31.071Z,17.40
2022-09-20T01:37:18.353Z,17.40
2022-09-20T01:39:48.751Z,17.40
2022-09-20T01:42:15.749Z,17.40
2022-09-20T01:44:56.408Z,17.40
2022-09-20T01:47:35.431Z,17.40
2022-09-20T01:50:13.551Z,17.40
2022-09-20T01:53:19.137Z,17.40
2022-09-20T01:56:23.775Z,17.40
2022-09-20T01:59:28.372Z,17.30
2022-09-20T02:02:09.029Z,17.30
2022-09-20T02:04:44.955Z,17.30
2022-09-20T02:07:39.046Z,17.40
2022-09-20T02:10:42.905Z,17.30
2022-09-20T02:13:23.011Z,17.40
2022-09-20T02:16:22.022Z,17.40
2022-09-20T02:19:25.160Z,17.30
2022-09-20T02:22:04.164Z,17.40
2022-09-20T02:24:47.819Z,17.40
2022-09-20T02:27:23.882Z,17.40
2022-09-20T02:30:13.196Z,17.40
2022-09-20T02:33:04.419Z,17.40
2022-09-20T02:35:50.008Z,17.40
2022-09-20T02:38:54.085Z,17.40
2022-09-20T02:41:36.030Z,17.40
2022-09-20T02:44:08.520Z,17.40
2022-09-20T02:47:04.058Z,17.40
2022-09-20T02:49:57.329Z,17.40
2022-09-20T02:52:53.806Z,17.40
2022-09-20T02:55:48.988Z,17.40
2022-09-20T02:58:26.949Z,17.40
2022-09-20T03:01:31.862Z,17.40
2022-09-20T03:04:43.701Z,17.30
2022-09-20T03:07:55.167Z,17.30
2022-09-20T03:10:44.530Z,17.30
2022-09-20T03:13:44.070Z,17.30
2022-09-20T03:16:48.683Z,17.30
2022-09-20T03:19:43.563Z,17.30
2022-09-20T03:22:48.687Z,17.30
2022-09-20T03:25:36.093Z,17.30
2022-09-20T03:28:27.069Z,17.30
2022-09-20T03:31:26.527Z,17.30
2022-09-20T03:34:03.223Z,17.30
2022-09-20T03:36:47.979Z,17.30
2022-09-20T03:39:56.688Z,17.30
2022-09-20T03:42:27.067Z,17.30
2022-09-20T03:45:15.102Z,17.30
2022-09-20T03:47:58.670Z,17.30
2022-09-20T03:50:31.900Z,17.30
2022-09-20T03:53:17.639Z,17.30
2022-09-20T03:55:53.541Z,17.30
2022-09-20T03:58:35.976Z,17.20
2022-09-20T04:01:20.271Z,17.20
2022-09-20T04:04:03.577Z,17.20
2022-09-20T04:07:07.785Z,17.10
2022-09-20T04:09:37.757Z,17.10
2022-09-20T04:12:11.917Z,17.10
2022-09-20T04:15:02.972Z,17.20
2022-09-20T04:17:48.054Z,17.10
2022-09-20T04:20:32.235Z,17.10
2022-09-20T04:23:10.610Z,17.10
2022-09-20T04:25:44.195Z,17.10
2022-09-20T04:28:27.063Z,17.10
2022-09-20T04:31:05.553Z,17.10
2022-09-20T04:33:39.910Z,17.10
2022-09-20T04:36:31.531Z,17.20
2022-09-20T04:39:10.447Z,17.10
2022-09-20T04:41:52.562Z,17.10
2022-09-20T04:44:45.937Z,17.10
2022-09-20T04:47:33.844Z,17.20
2022-09-20T04:50:38.291Z,17.20
2022-09-20T04:53:47.595Z,17.20
2022-09-20T04:56:33.228Z,17.20
2022-09-20T04:59:07.974Z,17.20
2022-09-20T05:01:47.514Z,17.20
2022-09-20T05:04:42.655Z,17.20
2022-09-20T05:07:56.795Z,17.20
2022-09-20T05:10:40.397Z,17.20
2022-09-20T05:13:16.489Z,17.20
2022-09-20T05:16:13.163Z,17.20
2022-09-20T05:18:59.428Z,17.10
2022-09-20T05:21:52.869Z,17.10
2022-09-20T05:24:31.851Z,17.20
2022-09-20T05:27:29.944Z,17.10
2022-09-20T05:30:29.992Z,17.10
2022-09-20T05:32:56.890Z,17.10
2022-09-20T05:35:43.205Z,17.00
2022-09-20T05:38:19.004Z,17.10
2022-09-20T05:41:04.804Z,17.00
2022-09-20T05:43:34.804Z,17.10
2022-09-20T05:46:25.734Z,17.10
2022-09-20T05:49:16.392Z,17.10
2022-09-20T05:52:02.050Z,17.10
2022-09-20T05:54:50.713Z,17.10
2022-09-20T05:57:35.930Z,17.10
2022-09-20T06:00:13.441Z,17.10
2022-09-20T06:03:05.812Z,17.10
2022-09-20T06:05:52.360Z,17.10
2022-09-20T06:08:29.438Z,17.10
2022-09-20T06:11:00.539Z,17.10
2022-09-20T06:13:48.289Z,17.10
2022-09-20T06:16:28.295Z,17.20
2022-09-20T06:19:16.883Z,17.10
2022-09-20T06:21:55.825Z,17.20
2022-09-20T06:24:36.828Z,17.30
2022-09-20T06:27:28.368Z,17.40
2022-09-20T06:30:01.777Z,17.70
2022-09-20T06:32:28.715Z,18.10
2022-09-20T06:34:55.600Z,18.50
2022-09-20T06:38:06.023Z,19.00
2022-09-20T06:41:05.233Z,19.60
2022-09-20T06:43:32.064Z,20.20
2022-09-20T06:46:01.492Z,20.80
2022-09-20T06:48:31.530Z,21.20
2022-09-20T06:50:58.906Z,21.70
2022-09-20T06:53:33.357Z,22.10
2022-09-20T06:56:01.045Z,22.50
2022-09-20T06:58:28.278Z,22.80
2022-09-20T07:00:58.163Z,23.00
2022-09-20T07:03:25.088Z,23.20
2022-09-20T07:05:51.950Z,23.40
2022-09-20T07:08:18.806Z,23.60
2022-09-20T07:10:45.655Z,23.90
2022-09-20T07:13:15.350Z,24.10
2022-09-20T07:15:42.275Z,24.30
2022-09-20T07:18:09.178Z,24.50
2022-09-20T07:20:36.186Z,24.50
2022-09-20T07:23:05.788Z,24.30
2022-09-20T07:25:32.769Z,24.20
2022-09-20T07:27:59.763Z,23.90
2022-09-20T07:30:26.634Z,23.60
2022-09-20T07:32:53.659Z,23.40
2022-09-20T07:35:20.526Z,23.40
2022-09-20T07:37:47.853Z,23.40
2022-09-20T07:40:14.989Z,23.40
2022-09-20T07:42:41.896Z,23.40
2022-09-20T07:45:13.242Z,23.30
2022-09-20T07:47:42.086Z,23.20
2022-09-20T07:50:11.227Z,23.00
2022-09-20T07:52:38.128Z,22.80
2022-09-20T07:55:05.288Z,22.70
2022-09-20T07:57:36.233Z,22.50
2022-09-20T08:00:06.135Z,22.30
2022-09-20T08:02:39.593Z,22.10
2022-09-20T08:05:07.103Z,22.00
2022-09-20T08:07:34.060Z,21.80
2022-09-20T08:10:00.902Z,21.60
2022-09-20T08:15:14.877Z,21.50
2022-09-20T08:17:41.685Z,21.30
2022-09-20T08:20:09.642Z,21.20
2022-09-20T08:22:38.881Z,21.10
2022-09-20T08:25:07.055Z,21.10
2022-09-20T08:27:33.910Z,21.00
2022-09-20T08:30:01.215Z,20.90
2022-09-20T08:32:28.088Z,20.90
2022-09-20T08:34:54.943Z,20.80
2022-09-20T08:37:21.828Z,20.80
2022-09-20T08:39:59.542Z,20.60
2022-09-20T08:42:36.673Z,20.40
2022-09-20T08:45:21.892Z,20.50
2022-09-20T08:47:59.160Z,20.60
2022-09-20T08:50:29.346Z,20.70
2022-09-20T08:53:00.652Z,20.70
2022-09-20T08:55:39.175Z,20.80
2022-09-20T08:58:08.677Z,20.80
2022-09-20T09:00:37.530Z,20.80
2022-09-20T09:03:22.718Z,20.80
2022-09-20T09:05:54.873Z,20.80
2022-09-20T09:08:27.187Z,20.90
2022-09-20T09:11:02.363Z,20.90
2022-09-20T09:13:32.921Z,20.90
2022-09-20T09:16:06.395Z,20.80
2022-09-20T09:18:38.959Z,20.80
2022-09-20T09:21:07.699Z,20.90
2022-09-20T09:23:41.556Z,20.90
2022-09-20T09:26:23.076Z,20.90
2022-09-20T09:29:14.879Z,20.90
2022-09-20T09:31:42.057Z,21.00
2022-09-20T09:34:38.936Z,21.00
2022-09-20T09:37:05.866Z,21.10
2022-09-20T09:39:38.107Z,21.00
2022-09-20T09:42:31.672Z,21.10
2022-09-20T09:45:27.097Z,21.30
2022-09-20T09:47:55.337Z,21.50
2022-09-20T09:50:26.193Z,21.60
2022-09-20T09:53:03.024Z,21.70
2022-09-20T09:55:58.054Z,21.70
2022-09-20T09:58:34.385Z,21.70
2022-09-20T10:01:06.066Z,21.50
2022-09-20T10:03:50.000Z,21.30
2022-09-20T10:06:26.595Z,21.20
2022-09-20T10:09:14.147Z,21.10
2022-09-20T10:11:47.106Z,21.00
2022-09-20T10:14:38.329Z,20.80
2022-09-20T10:17:22.829Z,20.70
2022-09-20T10:20:20.067Z,20.70
2022-09-20T10:23:34.418Z,20.60
2022-09-20T10:25:58.324Z,20.60
2022-09-20T10:28:48.380Z,20.70
2022-09-20T10:31:27.875Z,20.70
2022-09-20T10:34:17.459Z,20.70
2022-09-20T10:36:52.722Z,20.70
2022-09-20T10:39:39.072Z,20.60
2022-09-20T10:42:47.155Z,20.70
2022-09-20T10:46:14.461Z,20.60
2022-09-20T10:48:52.422Z,20.60
2022-09-20T10:51:37.247Z,20.80
2022-09-20T10:54:19.984Z,20.90
2022-09-20T10:56:56.253Z,21.10
2022-09-20T10:59:23.217Z,21.40
2022-09-20T11:01:59.506Z,21.50
2022-09-20T11:04:41.184Z,21.70
2022-09-20T11:07:52.575Z,21.90
2022-09-20T11:10:25.723Z,22.10
2022-09-20T11:13:02.166Z,22.30
2022-09-20T11:15:45.189Z,22.50
2022-09-20T11:18:38.306Z,22.80
2022-09-20T11:21:38.368Z,22.90
2022-09-20T11:24:11.582Z,23.00
2022-09-20T11:26:44.473Z,23.10
2022-09-20T11:29:37.228Z,23.30
2022-09-20T11:32:37.895Z,23.50
2022-09-20T11:35:10.783Z,23.60
2022-09-20T11:37:47.862Z,23.70
2022-09-20T11:40:26.914Z,23.70
2022-09-20T11:42:57.649Z,23.70
2022-09-20T11:45:28.456Z,23.60
2022-09-20T11:48:04.225Z,23.50
2022-09-20T11:50:52.226Z,23.30
2022-09-20T11:54:01.595Z,23.20
2022-09-20T11:56:31.712Z,23.20
2022-09-20T11:59:02.631Z,23.20
2022-09-20T12:01:37.010Z,23.20
2022-09-20T12:04:31.742Z,23.20
2022-09-20T12:07:03.485Z,23.30
2022-09-20T12:09:41.346Z,23.20
2022-09-20T12:12:22.233Z,23.10
2022-09-20T12:15:01.564Z,23.10
2022-09-20T12:17:49.600Z,23.10
2022-09-20T12:20:34.901Z,23.10
2022-09-20T12:23:38.765Z,23.00
2022-09-20T12:26:22.054Z,23.00
2022-09-20T12:29:00.566Z,23.00
2022-09-20T12:31:34.251Z,23.00
2022-09-20T12:34:10.470Z,22.90
2022-09-20T12:36:52.104Z,22.90
2022-09-20T12:39:29.985Z,22.80
2022-09-20T12:42:01.394Z,22.80
2022-09-20T12:44:39.058Z,22.70
2022-09-20T12:47:11.789Z,22.80
2022-09-20T12:50:09.894Z,22.70
2022-09-20T12:52:58.106Z,22.70
2022-09-20T12:55:40.610Z,22.60
2022-09-20T12:58:14.525Z,22.50
2022-09-20T13:01:04.902Z,22.50
2022-09-20T13:03:37.371Z,22.50
2022-09-20T13:06:07.347Z,22.40
2022-09-20T13:08:56.044Z,22.40
2022-09-20T13:11:40.857Z,22.30
2022-09-20T13:14:13.173Z,22.20
2022-09-20T13:17:01.971Z,22.20
2022-09-20T13:19:42.126Z,22.20
2022-09-20T13:22:14.817Z,22.20
2022-09-20T13:24:45.141Z,22.30
2022-09-20T13:27:25.658Z,22.30
2022-09-20T13:29:53.455Z,22.20
2022-09-20T13:32:31.456Z,22.20
2022-09-20T13:35:10.214Z,22.20
2022-09-20T13:37:42.956Z,22.10
2022-09-20T13:40:22.108Z,22.10
2022-09-20T13:42:52.402Z,22.10
2022-09-20T13:45:22.045Z,22.00
2022-09-20T13:47:51.426Z,21.90
2022-09-20T13:50:31.095Z,21.80
2022-09-20T13:53:00.706Z,21.70
2022-09-20T13:55:30.538Z,21.60
2022-09-20T13:58:02.892Z,21.60
2022-09-20T14:00:31.554Z,21.60
2022-09-20T14:02:59.354Z,21.50
2022-09-20T14:05:29.395Z,21.50
2022-09-20T14:07:57.667Z,21.50
2022-09-20T14:10:27.702Z,21.50
2022-09-20T14:12:55.496Z,21.50
2022-09-20T14:15:22.675Z,21.60
2022-09-20T14:17:52.179Z,21.60
2022-09-20T14:20:22.940Z,21.60
2022-09-20T14:22:51.154Z,21.60
2022-09-20T14:25:26.642Z,21.70
2022-09-20T14:28:19.506Z,21.70
2022-09-20T14:30:47.746Z,21.70
2022-09-20T14:33:20.817Z,21.70
2022-09-20T14:35:51.689Z,21.70
2022-09-20T14:38:25.243Z,21.70
2022-09-20T14:40:52.621Z,21.70
2022-09-20T14:43:31.779Z,21.60
2022-09-20T14:46:07.106Z,21.60
2022-09-20T14:48:41.401Z,21.70
2022-09-20T14:51:21.967Z,21.70
2022-09-20T14:53:51.951Z,21.70
2022-09-20T14:56:35.672Z,21.80
2022-09-20T14:59:04.673Z,21.90
2022-09-20T15:01:31.810Z,21.90
2022-09-20T15:03:58.961Z,21.90
2022-09-20T15:06:26.095Z,21.90
2022-09-20T15:08:53.613Z,21.90
2022-09-20T15:11:20.635Z,21.80
2022-09-20T15:13:47.446Z,21.90
2022-09-20T15:16:17.225Z,21.90
2022-09-20T15:18:44.446Z,21.90
2022-09-20T15:21:11.849Z,21.80
2022-09-20T15:23:39.674Z,21.70
2022-09-20T15:26:07.660Z,21.70
2022-09-20T15:28:34.928Z,21.70
2022-09-20T15:31:01.937Z,21.70
2022-09-20T15:33:31.518Z,21.60
2022-09-20T15:35:59.241Z,21.60
2022-09-20T15:38:27.089Z,21.50
2022-09-20T15:40:54.470Z,21.50
2022-09-20T15:43:27.951Z,21.40
2022-09-20T15:46:02.989Z,21.40
2022-09-20T15:48:30.816Z,21.30
2022-09-20T15:51:02.178Z,21.30
2022-09-20T15:53:35.031Z,21.30
2022-09-20T15:56:04.502Z,21.20
2022-09-20T15:58:36.241Z,21.10
2022-09-20T16:01:08.527Z,21.00
2022-09-20T16:03:36.538Z,20.90
2022-09-20T16:06:06.291Z,20.80
2022-09-20T16:08:34.867Z,20.80
2022-09-20T16:11:02.059Z,20.80
2022-09-20T16:13:29.251Z,20.70
2022-09-20T16:16:00.720Z,20.70
2022-09-20T16:18:47.205Z,20.70
2022-09-20T16:21:16.973Z,20.70
2022-09-20T16:23:48.900Z,20.70
2022-09-20T16:26:16.757Z,20.60
2022-09-20T16:28:47.538Z,20.60
2022-09-20T16:31:42.256Z,20.60
2022-09-20T16:34:19.403Z,20.50
2022-09-20T16:36:47.431Z,20.60
2022-09-20T16:39:15.804Z,20.60
2022-09-20T16:41:44.095Z,20.60
2022-09-20T16:44:11.408Z,20.70
2022-09-20T16:46:38.321Z,20.70
2022-09-20T16:49:11.203Z,20.70
2022-09-20T16:51:42.543Z,20.70
2022-09-20T16:54:16.691Z,20.80
2022-09-20T16:56:46.537Z,20.70
2022-09-20T16:59:15.759Z,20.70
2022-09-20T17:01:42.966Z,20.60
2022-09-20T17:04:12.377Z,20.60
2022-09-20T17:06:43.226Z,20.60
2022-09-20T17:09:11.254Z,20.60
2022-09-20T17:11:47.188Z,20.60
2022-09-20T17:14:16.889Z,20.50
2022-09-20T17:16:47.621Z,20.40
2022-09-20T17:19:16.386Z,20.40
2022-09-20T17:21:47.050Z,20.30
2022-09-20T17:24:14.173Z,20.30
2022-09-20T17:26:45.442Z,20.30
2022-09-20T17:29:17.485Z,20.20
2022-09-20T17:31:54.960Z,20.10
2022-09-20T17:34:24.547Z,20.10
2022-09-20T17:36:51.663Z,20.00
2022-09-20T17:39:18.952Z,20.00
2022-09-20T17:41:48.198Z,19.90
2022-09-20T17:44:15.994Z,19.80
2022-09-20T17:46:47.911Z,19.70
2022-09-20T17:49:18.266Z,19.70
2022-09-20T17:51:51.379Z,19.60
2022-09-20T17:54:19.243Z,19.60
2022-09-20T17:56:48.829Z,19.50
2022-09-20T17:59:17.003Z,19.40
2022-09-20T18:01:47.577Z,19.40
2022-09-20T18:04:14.814Z,19.30
2022-09-20T18:06:46.163Z,19.30
2022-09-20T18:09:18.794Z,19.20
2022-09-20T18:11:51.304Z,19.20
2022-09-20T18:14:23.326Z,19.10
2022-09-20T18:16:55.862Z,19.10
2022-09-20T18:19:23.059Z,19.00
2022-09-20T18:21:50.209Z,19.00
2022-09-20T18:24:17.071Z,19.00
2022-09-20T18:26:44.477Z,19.00
2022-09-20T18:29:14.159Z,19.00
2022-09-20T18:31:44.566Z,19.00
2022-09-20T18:34:20.461Z,19.00
2022-09-20T18:36:53.305Z,19.00
2022-09-20T18:39:28.364Z,18.90
2022-09-20T18:41:55.962Z,19.00
2022-09-20T18:44:23.502Z,19.00
2022-09-20T18:46:53.466Z,19.00
2022-09-20T18:49:21.700Z,19.00
2022-09-20T18:51:49.559Z,19.00
2022-09-20T18:54:16.985Z,19.00
2022-09-20T18:56:45.880Z,19.00
2022-09-20T18:59:17.503Z,19.00
2022-09-20T19:01:52.542Z,19.00
2022-09-20T19:04:43.628Z,19.00
2022-09-20T19:07:51.840Z,19.00
2022-09-20T19:10:36.034Z,19.00
2022-09-20T19:13:28.935Z,19.00
2022-09-20T19:16:21.739Z,19.00
2022-09-20T19:19:17.962Z,19.00
2022-09-20T19:21:58.578Z,19.00
2022-09-20T19:24:41.202Z,19.00
2022-09-20T19:27:12.383Z,19.00
2022-09-20T19:29:40.062Z,19.00
2022-09-20T19:32:17.251Z,19.00
2022-09-20T19:34:45.744Z,19.00
2022-09-20T19:37:33.233Z,19.00
2022-09-20T19:40:26.026Z,19.00
2022-09-20T19:43:03.162Z,19.00
2022-09-20T19:46:05.892Z,19.00
2022-09-20T19:48:40.700Z,18.90
2022-09-20T19:51:12.385Z,18.90
2022-09-20T19:53:39.612Z,18.90
2022-09-20T19:56:22.228Z,18.90
2022-09-20T19:58:53.006Z,18.90
2022-09-20T20:01:22.632Z,18.80
2022-09-20T20:03:53.535Z,18.80
2022-09-20T20:07:04.889Z,18.80
2022-09-20T20:09:42.320Z,18.70
2022-09-20T20:12:28.155Z,18.80
2022-09-20T20:15:16.130Z,18.70
2022-09-20T20:18:03.591Z,18.70
2022-09-20T20:20:47.742Z,18.70
2022-09-20T20:24:15.120Z,18.70
2022-09-20T20:26:41.941Z,18.70
2022-09-20T20:29:10.250Z,18.60
2022-09-20T20:31:40.056Z,18.70
2022-09-20T20:34:08.782Z,18.60
2022-09-20T20:36:35.700Z,18.70
2022-09-20T20:39:02.618Z,18.60
2022-09-20T20:41:31.820Z,18.60
2022-09-20T20:43:58.702Z,18.60
2022-09-20T20:46:25.996Z,18.60
2022-09-20T20:48:53.203Z,18.60
2022-09-20T20:51:22.064Z,18.60
2022-09-20T20:53:55.170Z,18.60
2022-09-20T20:56:28.166Z,18.60
2022-09-20T20:58:57.765Z,18.60
2022-09-20T21:01:33.574Z,18.60
2022-09-20T21:04:01.233Z,18.60
2022-09-20T21:06:34.465Z,18.60
2022-09-20T21:09:03.046Z,18.60
2022-09-20T21:11:32.725Z,18.60
2022-09-20T21:14:04.915Z,18.60
2022-09-20T21:16:35.633Z,18.60
2022-09-20T21:19:03.921Z,18.50
2022-09-20T21:21:35.932Z,18.50
2022-09-20T21:24:05.326Z,18.50
2022-09-20T21:26:33.594Z,18.50
2022-09-20T21:29:02.505Z,18.50
2022-09-20T21:31:35.385Z,18.50
2022-09-20T21:34:04.353Z,18.50
2022-09-20T21:36:32.171Z,18.50
2022-09-20T21:38:59.017Z,18.40
2022-09-20T21:41:29.324Z,18.40
2022-09-20T21:44:02.482Z,18.40
2022-09-20T21:46:40.401Z,18.40
2022-09-20T21:49:09.334Z,18.40
2022-09-20T21:51:37.559Z,18.40
2022-09-20T21:54:06.271Z,18.30
2022-09-20T21:56:36.225Z,18.30
2022-09-20T21:59:04.470Z,18.30
2022-09-20T22:01:34.822Z,18.30
2022-09-20T22:04:05.822Z,18.30
2022-09-20T22:06:37.988Z,18.30
2022-09-20T22:09:10.608Z,18.20
2022-09-20T22:11:48.298Z,18.20
2022-09-20T22:14:18.186Z,18.10
2022-09-20T22:16:46.366Z,18.10
2022-09-20T22:19:16.473Z,18.10
2022-09-20T22:21:48.785Z,18.10
2022-09-20T22:24:17.047Z,18.10
2022-09-20T22:26:49.422Z,18.00
2022-09-20T22:29:17.480Z,18.00
2022-09-20T22:31:46.536Z,18.00
2022-09-20T22:34:18.914Z,18.00
2022-09-20T22:36:46.561Z,18.00
2022-09-20T22:39:14.111Z,18.00
2022-09-20T22:41:42.723Z,17.90
2022-09-20T22:44:10.525Z,18.00
2022-09-20T22:46:38.468Z,17.90
2022-09-20T22:49:06.361Z,17.90
2022-09-20T22:51:34.077Z,17.90
2022-09-20T22:54:05.861Z,17.90
2022-09-20T22:56:33.114Z,17.90
2022-09-20T22:59:06.319Z,17.90
2022-09-20T23:01:38.701Z,17.90
2022-09-20T23:04:11.275Z,17.80
2022-09-20T23:06:40.985Z,17.80
2022-09-20T23:09:10.639Z,17.80
2022-09-20T23:11:39.390Z,17.80
2022-09-20T23:14:06.945Z,17.70
2022-09-20T23:16:36.283Z,17.70
2022-09-20T23:19:05.387Z,17.70
2022-09-20T23:21:33.782Z,17.70
2022-09-20T23:24:05.086Z,17.70
2022-09-20T23:26:34.389Z,17.60
2022-09-20T23:29:04.380Z,17.60
2022-09-20T23:31:34.701Z,17.60
2022-09-20T23:34:03.757Z,17.60
2022-09-20T23:36:33.135Z,17.60
2022-09-20T23:39:00.346Z,17.60
2022-09-20T23:41:28.864Z,17.60
2022-09-20T23:43:56.146Z,17.50
2022-09-20T23:46:25.127Z,17.50
2022-09-20T23:48:52.962Z,17.50
2022-09-20T23:51:25.410Z,17.50
2022-09-20T23:53:53.692Z,17.50
2022-09-20T23:56:22.425Z,17.40
2022-09-20T23:58:53.319Z,17.40
